sensor_id;sensor_type;location;lat;lon;timestamp;temperature;humidity
10304;DHT22;5197;48.152;8.590;2023-04-01T00:01:27;7.20;21.60
10304;DHT22;5197;48.152;8.590;2023-04-01T00:03:54;7.20;21.50
10304;DHT22;5197;48.152;8.590;2023-04-01T00:06:21;7.20;21.40
10304;DHT22;5197;48.152;8.590;2023-04-01T00:08:48;7.10;21.30
10304;DHT22;5197;48.152;8.590;2023-04-01T00:11:15;7.20;21.40
10304;DHT22;5197;48.152;8.590;2023-04-01T00:13:42;7.10;21.20
10304;DHT22;5197;48.152;8.590;2023-04-01T00:16:09;7.10;21.20
10304;DHT22;5197;48.152;8.590;2023-04-01T00:18:48;7.00;21.40
10304;DHT22;5197;48.152;8.590;2023-04-01T00:21:15;7.00;21.50
10304;DHT22;5197;48.152;8.590;2023-04-01T00:23:42;7.00;21.60
10304;DHT22;5197;48.152;8.590;2023-04-01T00:26:10;7.00;21.50
10304;DHT22;5197;48.152;8.590;2023-04-01T00:28:38;6.90;21.50
10304;DHT22;5197;48.152;8.590;2023-04-01T00:31:07;7.00;21.60
10304;DHT22;5197;48.152;8.590;2023-04-01T00:33:34;6.90;21.80
10304;DHT22;5197;48.152;8.590;2023-04-01T00:36:07;6.90;21.90
10304;DHT22;5197;48.152;8.590;2023-04-01T00:38:35;6.90;21.90
10304;DHT22;5197;48.152;8.590;2023-04-01T00:41:03;6.80;21.60
10304;DHT22;5197;48.152;8.590;2023-04-01T00:43:31;6.80;21.50
10304;DHT22;5197;48.152;8.590;2023-04-01T00:45:58;6.80;21.50
10304;DHT22;5197;48.152;8.590;2023-04-01T00:48:31;6.80;21.70
10304;DHT22;5197;48.152;8.590;2023-04-01T00:51:09;6.80;21.60
10304;DHT22;5197;48.152;8.590;2023-04-01T00:53:41;6.70;21.50
10304;DHT22;5197;48.152;8.590;2023-04-01T00:56:12;6.70;21.50
10304;DHT22;5197;48.152;8.590;2023-04-01T00:58:46;6.70;21.60
10304;DHT22;5197;48.152;8.590;2023-04-01T01:01:14;6.70;21.50
10304;DHT22;5197;48.152;8.590;2023-04-01T01:03:42;6.70;21.50
10304;DHT22;5197;48.152;8.590;2023-04-01T01:11:25;6.70;21.70
10304;DHT22;5197;48.152;8.590;2023-04-01T01:16:48;6.60;21.70
10304;DHT22;5197;48.152;8.590;2023-04-01T01:27:40;6.50;21.80
10304;DHT22;5197;48.152;8.590;2023-04-01T01:30:26;6.50;22.10
10304;DHT22;5197;48.152;8.590;2023-04-01T01:35:48;6.70;22.40
10304;DHT22;5197;48.152;8.590;2023-04-01T01:38:18;6.50;23.30
10304;DHT22;5197;48.152;8.590;2023-04-01T01:40:48;6.50;22.40
10304;DHT22;5197;48.152;8.590;2023-04-01T01:43:21;6.60;22.60
10304;DHT22;5197;48.152;8.590;2023-04-01T01:46:00;6.50;22.70
10304;DHT22;5197;48.152;8.590;2023-04-01T01:48:29;6.50;22.60
10304;DHT22;5197;48.152;8.590;2023-04-01T01:50:57;6.50;23.00
10304;DHT22;5197;48.152;8.590;2023-04-01T01:53:25;6.50;23.20
10304;DHT22;5197;48.152;8.590;2023-04-01T01:55:51;6.50;23.40
10304;DHT22;5197;48.152;8.590;2023-04-01T01:58:43;6.50;23.60
10304;DHT22;5197;48.152;8.590;2023-04-01T02:01:31;6.70;23.80
10304;DHT22;5197;48.152;8.590;2023-04-01T02:04:00;6.50;23.60
10304;DHT22;5197;48.152;8.590;2023-04-01T02:06:30;6.50;24.00
10304;DHT22;5197;48.152;8.590;2023-04-01T02:09:06;6.50;24.00
10304;DHT22;5197;48.152;8.590;2023-04-01T02:11:48;6.50;24.00
10304;DHT22;5197;48.152;8.590;2023-04-01T02:14:25;6.50;24.10
10304;DHT22;5197;48.152;8.590;2023-04-01T02:16:57;6.50;24.30
10304;DHT22;5197;48.152;8.590;2023-04-01T02:19:29;6.50;24.30
10304;DHT22;5197;48.152;8.590;2023-04-01T02:22:00;6.50;24.40
10304;DHT22;5197;48.152;8.590;2023-04-01T02:24:30;6.50;24.50
10304;DHT22;5197;48.152;8.590;2023-04-01T02:26:57;6.50;24.60
10304;DHT22;5197;48.152;8.590;2023-04-01T02:29:26;6.50;24.60
10304;DHT22;5197;48.152;8.590;2023-04-01T02:31:53;6.50;24.80
10304;DHT22;5197;48.152;8.590;2023-04-01T02:34:23;6.80;24.90
10304;DHT22;5197;48.152;8.590;2023-04-01T02:36:51;6.50;25.70
10304;DHT22;5197;48.152;8.590;2023-04-01T02:39:18;6.50;24.60
10304;DHT22;5197;48.152;8.590;2023-04-01T02:41:46;6.50;24.80
10304;DHT22;5197;48.152;8.590;2023-04-01T02:44:14;6.60;24.90
10304;DHT22;5197;48.152;8.590;2023-04-01T02:46:41;6.50;25.00
10304;DHT22;5197;48.152;8.590;2023-04-01T02:49:08;6.60;24.90
10304;DHT22;5197;48.152;8.590;2023-04-01T02:51:35;6.60;25.00
10304;DHT22;5197;48.152;8.590;2023-04-01T02:54:02;6.60;24.90
10304;DHT22;5197;48.152;8.590;2023-04-01T02:56:29;6.60;24.90
10304;DHT22;5197;48.152;8.590;2023-04-01T02:58:56;6.60;24.80
10304;DHT22;5197;48.152;8.590;2023-04-01T03:01:23;6.60;24.60
10304;DHT22;5197;48.152;8.590;2023-04-01T03:03:50;6.70;24.60
10304;DHT22;5197;48.152;8.590;2023-04-01T03:06:17;6.70;24.50
10304;DHT22;5197;48.152;8.590;2023-04-01T03:08:44;6.70;24.40
10304;DHT22;5197;48.152;8.590;2023-04-01T03:11:11;6.70;24.40
10304;DHT22;5197;48.152;8.590;2023-04-01T03:13:38;6.70;24.40
10304;DHT22;5197;48.152;8.590;2023-04-01T03:16:05;6.70;24.50
10304;DHT22;5197;48.152;8.590;2023-04-01T03:18:32;6.70;24.50
10304;DHT22;5197;48.152;8.590;2023-04-01T03:21:20;6.70;24.50
10304;DHT22;5197;48.152;8.590;2023-04-01T03:23:47;6.70;24.30
10304;DHT22;5197;48.152;8.590;2023-04-01T03:26:14;6.70;24.60
10304;DHT22;5197;48.152;8.590;2023-04-01T03:28:41;6.70;24.60
10304;DHT22;5197;48.152;8.590;2023-04-01T03:31:08;6.70;24.60
10304;DHT22;5197;48.152;8.590;2023-04-01T03:33:36;6.70;24.80
10304;DHT22;5197;48.152;8.590;2023-04-01T03:36:03;6.70;24.80
10304;DHT22;5197;48.152;8.590;2023-04-01T03:38:34;6.70;24.80
10304;DHT22;5197;48.152;8.590;2023-04-01T03:41:01;6.70;24.80
10304;DHT22;5197;48.152;8.590;2023-04-01T03:43:28;6.70;24.90
10304;DHT22;5197;48.152;8.590;2023-04-01T03:45:55;6.70;24.90
10304;DHT22;5197;48.152;8.590;2023-04-01T03:48:24;6.70;24.90
10304;DHT22;5197;48.152;8.590;2023-04-01T03:50:52;6.70;25.00
10304;DHT22;5197;48.152;8.590;2023-04-01T03:53:19;6.70;25.00
10304;DHT22;5197;48.152;8.590;2023-04-01T03:55:46;6.70;25.10
10304;DHT22;5197;48.152;8.590;2023-04-01T03:58:13;6.70;25.10
10304;DHT22;5197;48.152;8.590;2023-04-01T04:00:40;6.60;25.10
10304;DHT22;5197;48.152;8.590;2023-04-01T04:03:07;6.60;25.20
10304;DHT22;5197;48.152;8.590;2023-04-01T04:05:34;6.60;25.20
10304;DHT22;5197;48.152;8.590;2023-04-01T04:08:01;6.50;25.10
10304;DHT22;5197;48.152;8.590;2023-04-01T04:10:28;6.50;25.20
10304;DHT22;5197;48.152;8.590;2023-04-01T04:12:55;6.50;25.40
10304;DHT22;5197;48.152;8.590;2023-04-01T04:15:23;6.50;25.20
10304;DHT22;5197;48.152;8.590;2023-04-01T04:17:49;6.40;25.20
10304;DHT22;5197;48.152;8.590;2023-04-01T04:20:16;6.40;25.20
10304;DHT22;5197;48.152;8.590;2023-04-01T04:22:43;6.40;25.20
10304;DHT22;5197;48.152;8.590;2023-04-01T04:25:10;6.30;25.10
10304;DHT22;5197;48.152;8.590;2023-04-01T04:27:37;6.30;25.10
10304;DHT22;5197;48.152;8.590;2023-04-01T04:30:06;6.30;25.10
10304;DHT22;5197;48.152;8.590;2023-04-01T04:32:33;6.30;25.10
10304;DHT22;5197;48.152;8.590;2023-04-01T04:35:00;6.30;25.00
10304;DHT22;5197;48.152;8.590;2023-04-01T04:37:27;6.20;24.80
10304;DHT22;5197;48.152;8.590;2023-04-01T04:39:53;6.20;24.90
10304;DHT22;5197;48.152;8.590;2023-04-01T04:42:21;6.20;25.00
10304;DHT22;5197;48.152;8.590;2023-04-01T04:44:48;6.20;25.00
10304;DHT22;5197;48.152;8.590;2023-04-01T04:47:14;6.20;25.10
10304;DHT22;5197;48.152;8.590;2023-04-01T04:49:41;6.20;25.20
10304;DHT22;5197;48.152;8.590;2023-04-01T04:52:08;6.20;25.20
10304;DHT22;5197;48.152;8.590;2023-04-01T04:54:35;6.20;25.30
10304;DHT22;5197;48.152;8.590;2023-04-01T04:57:02;6.20;25.30
10304;DHT22;5197;48.152;8.590;2023-04-01T04:59:30;6.20;25.20
10304;DHT22;5197;48.152;8.590;2023-04-01T05:01:57;6.20;25.40
10304;DHT22;5197;48.152;8.590;2023-04-01T05:04:24;6.20;25.30
10304;DHT22;5197;48.152;8.590;2023-04-01T05:06:51;6.20;25.10
10304;DHT22;5197;48.152;8.590;2023-04-01T05:09:18;6.20;25.40
10304;DHT22;5197;48.152;8.590;2023-04-01T05:11:45;6.20;25.50
10304;DHT22;5197;48.152;8.590;2023-04-01T05:14:16;6.20;25.40
10304;DHT22;5197;48.152;8.590;2023-04-01T05:16:43;6.20;25.20
10304;DHT22;5197;48.152;8.590;2023-04-01T05:19:10;6.20;25.40
10304;DHT22;5197;48.152;8.590;2023-04-01T05:21:37;6.20;25.30
10304;DHT22;5197;48.152;8.590;2023-04-01T05:24:08;6.20;25.40
10304;DHT22;5197;48.152;8.590;2023-04-01T05:26:36;6.20;25.30
10304;DHT22;5197;48.152;8.590;2023-04-01T05:29:04;6.20;25.20
10304;DHT22;5197;48.152;8.590;2023-04-01T05:31:31;6.20;25.20
10304;DHT22;5197;48.152;8.590;2023-04-01T05:33:58;6.20;25.20
10304;DHT22;5197;48.152;8.590;2023-04-01T05:36:25;6.30;25.30
10304;DHT22;5197;48.152;8.590;2023-04-01T05:38:55;6.30;26.30
10304;DHT22;5197;48.152;8.590;2023-04-01T05:41:22;6.30;25.30
10304;DHT22;5197;48.152;8.590;2023-04-01T05:43:48;6.30;25.30
10304;DHT22;5197;48.152;8.590;2023-04-01T05:46:15;6.40;25.40
10304;DHT22;5197;48.152;8.590;2023-04-01T05:48:42;6.40;25.30
10304;DHT22;5197;48.152;8.590;2023-04-01T05:51:13;6.40;25.30
10304;DHT22;5197;48.152;8.590;2023-04-01T05:53:41;6.40;25.30
10304;DHT22;5197;48.152;8.590;2023-04-01T05:56:08;6.40;25.20
10304;DHT22;5197;48.152;8.590;2023-04-01T05:58:37;6.40;25.30
10304;DHT22;5197;48.152;8.590;2023-04-01T06:01:06;6.40;25.40
10304;DHT22;5197;48.152;8.590;2023-04-01T06:03:41;6.40;25.40
10304;DHT22;5197;48.152;8.590;2023-04-01T06:06:29;6.50;25.50
10304;DHT22;5197;48.152;8.590;2023-04-01T06:09:07;6.50;25.40
10304;DHT22;5197;48.152;8.590;2023-04-01T06:17:34;6.50;25.70
10304;DHT22;5197;48.152;8.590;2023-04-01T06:28:34;6.50;25.80
10304;DHT22;5197;48.152;8.590;2023-04-01T06:42:24;6.70;26.00
10304;DHT22;5197;48.152;8.590;2023-04-01T06:47:58;6.70;25.80
10304;DHT22;5197;48.152;8.590;2023-04-01T06:56:29;6.80;25.50
10304;DHT22;5197;48.152;8.590;2023-04-01T06:59:05;6.80;25.40
10304;DHT22;5197;48.152;8.590;2023-04-01T07:01:50;6.80;25.50
10304;DHT22;5197;48.152;8.590;2023-04-01T07:04:22;6.80;25.50
10304;DHT22;5197;48.152;8.590;2023-04-01T07:07:03;6.80;25.70
10304;DHT22;5197;48.152;8.590;2023-04-01T07:09:34;6.80;25.70
10304;DHT22;5197;48.152;8.590;2023-04-01T07:12:21;6.80;25.80
10304;DHT22;5197;48.152;8.590;2023-04-01T07:14:52;6.90;26.00
10304;DHT22;5197;48.152;8.590;2023-04-01T07:17:23;6.90;26.10
10304;DHT22;5197;48.152;8.590;2023-04-01T07:22:35;7.00;26.10
10304;DHT22;5197;48.152;8.590;2023-04-01T07:25:35;7.00;26.20
10304;DHT22;5197;48.152;8.590;2023-04-01T07:28:14;7.10;26.00
10304;DHT22;5197;48.152;8.590;2023-04-01T07:33:54;7.10;26.00
10304;DHT22;5197;48.152;8.590;2023-04-01T07:36:31;7.10;26.10
10304;DHT22;5197;48.152;8.590;2023-04-01T07:44:59;7.20;25.70
10304;DHT22;5197;48.152;8.590;2023-04-01T07:50:26;7.30;25.70
10304;DHT22;5197;48.152;8.590;2023-04-01T08:03:58;7.40;26.00
10304;DHT22;5197;48.152;8.590;2023-04-01T08:17:43;7.30;26.10
10304;DHT22;5197;48.152;8.590;2023-04-01T08:23:10;7.30;25.90
10304;DHT22;5197;48.152;8.590;2023-04-01T08:25:40;7.20;26.10
10304;DHT22;5197;48.152;8.590;2023-04-01T08:31:16;7.20;26.00
10304;DHT22;5197;48.152;8.590;2023-04-01T08:33:46;7.20;26.20
10304;DHT22;5197;48.152;8.590;2023-04-01T08:36:20;7.10;26.10
10304;DHT22;5197;48.152;8.590;2023-04-01T08:39:04;7.20;26.30
10304;DHT22;5197;48.152;8.590;2023-04-01T08:52:31;7.30;26.40
10304;DHT22;5197;48.152;8.590;2023-04-01T08:58:22;7.40;26.10
10304;DHT22;5197;48.152;8.590;2023-04-01T09:00:56;7.50;26.10
10304;DHT22;5197;48.152;8.590;2023-04-01T09:06:21;7.60;26.00
10304;DHT22;5197;48.152;8.590;2023-04-01T09:12:23;7.60;25.50
10304;DHT22;5197;48.152;8.590;2023-04-01T09:21:19;7.70;25.40
10304;DHT22;5197;48.152;8.590;2023-04-01T09:27:19;7.70;26.00
10304;DHT22;5197;48.152;8.590;2023-04-01T09:32:51;7.70;24.90
10304;DHT22;5197;48.152;8.590;2023-04-01T09:35:21;7.70;25.20
10304;DHT22;5197;48.152;8.590;2023-04-01T09:37:53;7.70;25.20
10304;DHT22;5197;48.152;8.590;2023-04-01T09:43:22;7.70;25.20
10304;DHT22;5197;48.152;8.590;2023-04-01T09:48:35;7.70;25.30
10304;DHT22;5197;48.152;8.590;2023-04-01T10:05:04;7.80;25.10
10304;DHT22;5197;48.152;8.590;2023-04-01T10:07:47;7.90;25.10
10304;DHT22;5197;48.152;8.590;2023-04-01T10:22:24;7.90;25.20
10304;DHT22;5197;48.152;8.590;2023-04-01T10:25:29;7.90;25.20
10304;DHT22;5197;48.152;8.590;2023-04-01T11:05:05;8.20;24.40
10304;DHT22;5197;48.152;8.590;2023-04-01T11:30:10;8.50;23.30
10304;DHT22;5197;48.152;8.590;2023-04-01T11:44:23;11.10;23.10
10304;DHT22;5197;48.152;8.590;2023-04-01T11:47:19;8.90;21.80
10304;DHT22;5197;48.152;8.590;2023-04-01T11:55:28;9.10;20.90
10304;DHT22;5197;48.152;8.590;2023-04-01T12:06:14;9.00;20.90
10304;DHT22;5197;48.152;8.590;2023-04-01T12:11:44;9.00;20.90
10304;DHT22;5197;48.152;8.590;2023-04-01T12:17:28;9.00;20.90
10304;DHT22;5197;48.152;8.590;2023-04-01T12:20:29;9.00;20.90
10304;DHT22;5197;48.152;8.590;2023-04-01T12:29:12;8.80;20.70
10304;DHT22;5197;48.152;8.590;2023-04-01T12:32:05;8.80;20.70
10304;DHT22;5197;48.152;8.590;2023-04-01T12:49:17;8.90;20.80
10304;DHT22;5197;48.152;8.590;2023-04-01T13:09:40;9.00;20.10
10304;DHT22;5197;48.152;8.590;2023-04-01T13:15:21;8.90;20.80
10304;DHT22;5197;48.152;8.590;2023-04-01T13:29:17;9.10;20.60
10304;DHT22;5197;48.152;8.590;2023-04-01T13:32:05;9.10;20.60
10304;DHT22;5197;48.152;8.590;2023-04-01T13:35:02;9.10;20.10
10304;DHT22;5197;48.152;8.590;2023-04-01T13:40:45;9.30;19.80
10304;DHT22;5197;48.152;8.590;2023-04-01T13:49:41;9.40;18.50
10304;DHT22;5197;48.152;8.590;2023-04-01T13:52:52;9.40;17.90
10304;DHT22;5197;48.152;8.590;2023-04-01T13:58:20;9.40;18.20
10304;DHT22;5197;48.152;8.590;2023-04-01T14:01:09;9.40;18.30
10304;DHT22;5197;48.152;8.590;2023-04-01T14:04:03;9.50;17.30
10304;DHT22;5197;48.152;8.590;2023-04-01T14:15:20;9.60;16.90
10304;DHT22;5197;48.152;8.590;2023-04-01T14:26:34;9.60;16.10
10304;DHT22;5197;48.152;8.590;2023-04-01T14:29:11;9.70;15.10
10304;DHT22;5197;48.152;8.590;2023-04-01T14:31:59;9.70;16.10
10304;DHT22;5197;48.152;8.590;2023-04-01T14:34:38;9.80;14.60
10304;DHT22;5197;48.152;8.590;2023-04-01T14:37:36;9.80;15.70
10304;DHT22;5197;48.152;8.590;2023-04-01T14:49:32;9.90;15.20
10304;DHT22;5197;48.152;8.590;2023-04-01T14:52:10;10.00;13.40
10304;DHT22;5197;48.152;8.590;2023-04-01T14:54:41;10.00;14.10
10304;DHT22;5197;48.152;8.590;2023-04-01T14:57:31;10.00;13.30
10304;DHT22;5197;48.152;8.590;2023-04-01T15:00:13;10.00;14.30
10304;DHT22;5197;48.152;8.590;2023-04-01T15:05:39;10.10;13.70
10304;DHT22;5197;48.152;8.590;2023-04-01T15:08:30;10.00;13.40
10304;DHT22;5197;48.152;8.590;2023-04-01T15:11:13;10.00;12.70
10304;DHT22;5197;48.152;8.590;2023-04-01T15:17:02;10.00;13.40
10304;DHT22;5197;48.152;8.590;2023-04-01T15:25:49;10.10;12.80
10304;DHT22;5197;48.152;8.590;2023-04-01T15:31:34;10.00;12.40
10304;DHT22;5197;48.152;8.590;2023-04-01T15:37:28;9.90;12.40
10304;DHT22;5197;48.152;8.590;2023-04-01T15:40:33;9.90;12.80
10304;DHT22;5197;48.152;8.590;2023-04-01T15:43:16;9.80;12.80
10304;DHT22;5197;48.152;8.590;2023-04-01T15:46:09;9.80;12.00
10304;DHT22;5197;48.152;8.590;2023-04-01T15:55:18;9.80;13.50
10304;DHT22;5197;48.152;8.590;2023-04-01T16:00:30;9.80;12.60
10304;DHT22;5197;48.152;8.590;2023-04-01T16:03:16;9.80;12.00
10304;DHT22;5197;48.152;8.590;2023-04-01T16:14:28;9.70;12.30
10304;DHT22;5197;48.152;8.590;2023-04-01T16:20:46;9.70;11.40
10304;DHT22;5197;48.152;8.590;2023-04-01T16:26:13;9.70;11.10
10304;DHT22;5197;48.152;8.590;2023-04-01T16:31:37;9.60;11.00
10304;DHT22;5197;48.152;8.590;2023-04-01T16:34:30;9.50;11.40
10304;DHT22;5197;48.152;8.590;2023-04-01T16:37:10;11.20;12.00
10304;DHT22;5197;48.152;8.590;2023-04-01T16:39:50;9.40;12.00
10304;DHT22;5197;48.152;8.590;2023-04-01T16:42:22;9.40;11.60
10304;DHT22;5197;48.152;8.590;2023-04-01T16:45:06;9.40;12.30
10304;DHT22;5197;48.152;8.590;2023-04-01T16:47:51;9.40;12.00
10304;DHT22;5197;48.152;8.590;2023-04-01T16:50:26;9.40;12.00
10304;DHT22;5197;48.152;8.590;2023-04-01T16:58:38;9.40;11.00
10304;DHT22;5197;48.152;8.590;2023-04-01T17:01:21;9.40;11.30
10304;DHT22;5197;48.152;8.590;2023-04-01T17:03:53;9.40;11.20
10304;DHT22;5197;48.152;8.590;2023-04-01T17:06:38;9.40;11.30
10304;DHT22;5197;48.152;8.590;2023-04-01T17:09:17;9.30;11.10
10304;DHT22;5197;48.152;8.590;2023-04-01T17:20:41;9.10;10.80
10304;DHT22;5197;48.152;8.590;2023-04-01T17:23:19;9.50;11.90
10304;DHT22;5197;48.152;8.590;2023-04-01T17:26:16;8.90;12.00
10304;DHT22;5197;48.152;8.590;2023-04-01T17:29:03;8.90;11.70
10304;DHT22;5197;48.152;8.590;2023-04-01T17:31:44;8.80;12.30
10304;DHT22;5197;48.152;8.590;2023-04-01T17:37:14;8.80;12.20
10304;DHT22;5197;48.152;8.590;2023-04-01T17:42:46;8.80;12.40
10304;DHT22;5197;48.152;8.590;2023-04-01T17:45:21;8.70;12.00
10304;DHT22;5197;48.152;8.590;2023-04-01T17:48:15;8.70;12.00
10304;DHT22;5197;48.152;8.590;2023-04-01T17:51:05;8.70;12.00
10304;DHT22;5197;48.152;8.590;2023-04-01T17:56:39;8.60;11.70
10304;DHT22;5197;48.152;8.590;2023-04-01T17:59:40;8.60;11.90
10304;DHT22;5197;48.152;8.590;2023-04-01T18:10:41;8.50;12.70
10304;DHT22;5197;48.152;8.590;2023-04-01T18:19:03;8.40;13.10
10304;DHT22;5197;48.152;8.590;2023-04-01T18:21:54;8.30;13.40
10304;DHT22;5197;48.152;8.590;2023-04-01T18:27:18;8.30;13.50
10304;DHT22;5197;48.152;8.590;2023-04-01T18:30:03;8.20;13.70
10304;DHT22;5197;48.152;8.590;2023-04-01T18:40:48;8.20;13.90
10304;DHT22;5197;48.152;8.590;2023-04-01T18:45:50;8.30;14.00
10304;DHT22;5197;48.152;8.590;2023-04-01T18:53:42;8.10;14.30
10304;DHT22;5197;48.152;8.590;2023-04-01T18:56:26;8.00;14.40
10304;DHT22;5197;48.152;8.590;2023-04-01T18:59:05;8.00;14.50
10304;DHT22;5197;48.152;8.590;2023-04-01T19:04:26;7.90;14.70
10304;DHT22;5197;48.152;8.590;2023-04-01T19:07:00;7.90;15.00
10304;DHT22;5197;48.152;8.590;2023-04-01T19:09:48;7.80;15.20
10304;DHT22;5197;48.152;8.590;2023-04-01T19:12:26;7.80;15.10
10304;DHT22;5197;48.152;8.590;2023-04-01T19:15:16;7.80;15.50
10304;DHT22;5197;48.152;8.590;2023-04-01T19:21:11;7.70;15.60
10304;DHT22;5197;48.152;8.590;2023-04-01T19:26:39;7.60;16.20
10304;DHT22;5197;48.152;8.590;2023-04-01T19:29:35;7.50;16.20
10304;DHT22;5197;48.152;8.590;2023-04-01T19:35:13;7.50;16.30
10304;DHT22;5197;48.152;8.590;2023-04-01T19:37:51;7.40;16.60
10304;DHT22;5197;48.152;8.590;2023-04-01T19:45:54;7.40;17.00
10304;DHT22;5197;48.152;8.590;2023-04-01T19:57:11;7.20;17.30
10304;DHT22;5197;48.152;8.590;2023-04-01T19:59:47;7.10;17.80
10304;DHT22;5197;48.152;8.590;2023-04-01T20:02:37;7.00;17.90
10304;DHT22;5197;48.152;8.590;2023-04-01T20:11:08;6.90;18.30
10304;DHT22;5197;48.152;8.590;2023-04-01T20:17:15;6.80;18.80
10304;DHT22;5197;48.152;8.590;2023-04-01T20:19:55;6.80;19.50
10304;DHT22;5197;48.152;8.590;2023-04-01T20:25:16;6.60;19.30
10304;DHT22;5197;48.152;8.590;2023-04-01T20:27:49;7.00;19.60
10304;DHT22;5197;48.152;8.590;2023-04-01T20:35:51;6.50;19.30
10304;DHT22;5197;48.152;8.590;2023-04-01T20:41:23;6.30;19.30
10304;DHT22;5197;48.152;8.590;2023-04-01T20:44:12;6.40;19.20
10304;DHT22;5197;48.152;8.590;2023-04-01T20:49:53;6.30;19.10
10304;DHT22;5197;48.152;8.590;2023-04-01T20:52:37;6.30;19.20
10304;DHT22;5197;48.152;8.590;2023-04-01T20:58:07;6.20;19.10
10304;DHT22;5197;48.152;8.590;2023-04-01T21:03:31;6.10;19.00
10304;DHT22;5197;48.152;8.590;2023-04-01T21:06:47;6.10;19.00
10304;DHT22;5197;48.152;8.590;2023-04-01T21:09:24;6.10;19.00
10304;DHT22;5197;48.152;8.590;2023-04-01T21:20:49;6.00;19.00
10304;DHT22;5197;48.152;8.590;2023-04-01T21:26:13;5.90;18.90
10304;DHT22;5197;48.152;8.590;2023-04-01T21:34:04;5.80;19.30
10304;DHT22;5197;48.152;8.590;2023-04-01T21:39:46;5.80;19.00
10304;DHT22;5197;48.152;8.590;2023-04-01T21:57:09;5.70;20.20
10304;DHT22;5197;48.152;8.590;2023-04-01T22:05:12;5.70;20.60
10304;DHT22;5197;48.152;8.590;2023-04-01T22:08:20;5.70;20.70
10304;DHT22;5197;48.152;8.590;2023-04-01T22:10:54;5.60;23.60
10304;DHT22;5197;48.152;8.590;2023-04-01T22:16:19;5.50;26.90
10304;DHT22;5197;48.152;8.590;2023-04-01T22:21:34;5.60;25.00
10304;DHT22;5197;48.152;8.590;2023-04-01T22:24:16;5.60;24.50
10304;DHT22;5197;48.152;8.590;2023-04-01T22:26:53;5.70;24.10
10304;DHT22;5197;48.152;8.590;2023-04-01T22:32:49;5.80;23.60
10304;DHT22;5197;48.152;8.590;2023-04-01T22:35:36;5.90;23.40
10304;DHT22;5197;48.152;8.590;2023-04-01T22:43:57;5.90;23.60
10304;DHT22;5197;48.152;8.590;2023-04-01T22:47:00;5.90;23.60
10304;DHT22;5197;48.152;8.590;2023-04-01T22:49:31;6.00;23.30
10304;DHT22;5197;48.152;8.590;2023-04-01T22:54:34;5.90;23.70
10304;DHT22;5197;48.152;8.590;2023-04-01T23:00:39;5.80;24.00
10304;DHT22;5197;48.152;8.590;2023-04-01T23:03:30;5.70;24.40
10304;DHT22;5197;48.152;8.590;2023-04-01T23:06:03;5.70;24.40
10304;DHT22;5197;48.152;8.590;2023-04-01T23:11:19;5.70;24.70
10304;DHT22;5197;48.152;8.590;2023-04-01T23:13:57;5.70;24.60
10304;DHT22;5197;48.152;8.590;2023-04-01T23:16:37;5.60;24.90
10304;DHT22;5197;48.152;8.590;2023-04-01T23:19:37;5.60;25.00
10304;DHT22;5197;48.152;8.590;2023-04-01T23:27:33;5.60;24.90
10304;DHT22;5197;48.152;8.590;2023-04-01T23:30:04;5.60;25.20
10304;DHT22;5197;48.152;8.590;2023-04-01T23:32:31;5.60;25.40
10304;DHT22;5197;48.152;8.590;2023-04-01T23:34:59;5.60;25.40
10304;DHT22;5197;48.152;8.590;2023-04-01T23:37:27;5.60;25.50
10304;DHT22;5197;48.152;8.590;2023-04-01T23:39:56;5.60;25.60
10304;DHT22;5197;48.152;8.590;2023-04-01T23:42:39;5.70;25.70
10304;DHT22;5197;48.152;8.590;2023-04-01T23:45:17;7.00;26.40
10304;DHT22;5197;48.152;8.590;2023-04-01T23:47:48;5.70;25.70
10304;DHT22;5197;48.152;8.590;2023-04-01T23:50:20;5.70;25.80
10304;DHT22;5197;48.152;8.590;2023-04-01T23:53:17;5.70;26.00
10304;DHT22;5197;48.152;8.590;2023-04-01T23:55:45;5.70;25.70
